Lac La Biche, Alberta

Conditions des dernières 24 heures

Ce tableau est un sommaire des conditions météo couvrant les dernières 24 heures. Ce sommaire inclut les paramètres suivants: température, humidité, point de rosée, direction et vitesse du vent, pression barométrique, facteur de refroidissement éolien ou indice humidex.
Date / Heure
(HAR)
Conditions Temp (°C) Humidite (%) Point de rose (°C) Vent (km/h) Pression (kPa) Vis (km) Humidex
01 août 2014
1:00 N.D. 18   75 13 NE 2 102,1 N.D. *
0:00 N.D. 18   72 13 NNO 6 102,1 N.D. *
31 juillet 2014
23:00 N.D. 20 68 13 NNE 9 102,0 N.D. *
22:00 N.D. 20 63 13 NE 12 102,0 N.D. *
21:00 N.D. 22 64 15 NNO 7 101,9 N.D. 25
20:00 N.D. 25 48 13 NO 5 101,8 N.D. 28
19:00 N.D. 26 40 12 NO 8 101,8 N.D. 29
18:00 N.D. 27   35 11 NO 8 101,8 N.D. 29
17:00 N.D. 27   41 12 SO 6 101,8 N.D. 29
16:00 N.D. 26 41 12 ONO 3 101,8 N.D. 28
15:00 N.D. 26 49 14 NO 14 101,9 N.D. 29
14:00 N.D. 25 52 14 S 2 101,9 N.D. 28
13:00 N.D. 26 41 12 OSO 10 101,9 N.D. 28
12:00 N.D. 24 42 10 ONO 3 101,9 N.D. 26
11:00 N.D. 23 62 15 E 6 101,9 N.D. 27
10:00 N.D. 22 65 15 calme 101,9 N.D. 26
9:00 N.D. 23 62 15 ENE 9 101,8 N.D. 26
8:00 N.D. 21 69 15 OSO 7 101,9 N.D. 25
7:00 N.D. 20 76 16 NO 8 101,8 N.D. *
6:00 N.D. 20 76 16 N 7 101,7 N.D. *
5:00 N.D. 19 74 14 ONO 10 101,8 N.D. *
4:00 N.D. 20 82 17 ONO 10 101,8 N.D. *
3:00 N.D. 18   91 17 SO 6 101,8 N.D. *
2:00 N.D. 20 92 19 N 5 101,7 N.D. 26
1:00 N.D. 20 89 18 SSO 6 101,7 N.D. 26
N.D.
non disponible
 ↑ 
température la plus haute
 ↓ 
température la plus basse
*
Valeur non significative.

Si vous désirez plus de données historiques sur les conditions météo, s.v.p. visitez Données climatologiques en ligne.